Alamo, North Dakota
Current Conditions -  °F | °C
As of 7:35 PM on Friday 21 Nov 2014 (Local Time) from KD50 Reporting Station
Clear Clear  
Wind Chill: 27°   Ceiling: Unl
Heat Index: 36°   Visibility: 10mi
Dew Point: 32°   Wind: 14mph
Humidity: 87%   Direction: 240°WSW
Pressure: 29.6"   Gusts: NA
Location:  48.58°N, 103.47°W
Report Text: KD50 220135Z AUTO 24012KT 10SM CLR 02/00 A2960 RMK AO2
Loading
Personal Weather Stations






























Interactive Weather Map New forecast layout! Learn more

10-Day Weather Forecast

Advertisements
Track Severe Weather on mobile